PWSweather.com
Personal Weather Stations
Station Observations
PHMDWX
Perry Hall, MD 21236

Perry Hall, MD 21236

Lat: 39.418318, Lon: -76.490039

Elevation: 305

Station Type: Davis Vantage Pro

www.phmdwx.net

High Low Average
Temperature 53.8°F12.1°C 29.9°F-1.2°C 39.5°F4.2°C
Dew Point 53.5°F11.9°C 26.8°F-2.9°C 36.9°F2.7°C
Winds 4.9 mph 7.9 kmh Calm Calm 2.0 mph S3.2 kmh S
Wind Gusts 11.0 mph17.7 kmh -- 3.0 mph4.8 kmh
Humidity 100% 78% 90%
Pressure 30.22 in1023.4 mb 29.38 in994.9 mb -
Precipitation 0.75 in19.1 mm - -
Hour Temp Dew Point Humidity Winds Wind Gusts Pressure Precip Precip Rate Daily Precip Total
12:00 AM 30.3°F-0.9°C 26.6°F-3.0°C 86% 0.2 mph WNW0.3 kmh WNW 1.0 mph1.6 kmh 30.25 in1024.4 mb 0.00 in0.0 mm 0.00 in/hr0.0 mm/hr 0.00 in0.0 mm
12:30 AM 30.0°F-1.1°C 26.6°F-3.0°C 87% Calm Calm -- 30.23 in1023.7 mb 0.00 in0.0 mm 0.00 in/hr0.0 mm/hr 0.00 in0.0 mm
01:00 AM 29.9°F-1.2°C 26.8°F-2.9°C 88% Calm Calm -- 30.22 in1023.4 mb 0.00 in0.0 mm 0.00 in/hr0.0 mm/hr 0.00 in0.0 mm
01:30 AM 30.1°F-1.1°C 27.3°F-2.6°C 89% Calm Calm -- 30.21 in1023.0 mb 0.00 in0.0 mm 0.00 in/hr0.0 mm/hr 0.00 in0.0 mm
02:00 AM 30.4°F-0.9°C 27.8°F-2.3°C 90% Calm Calm -- 30.20 in1022.7 mb 0.00 in0.0 mm 0.00 in/hr0.0 mm/hr 0.00 in0.0 mm
02:30 AM 30.6°F-0.8°C 27.7°F-2.4°C 89% Calm Calm -- 30.20 in1022.7 mb 0.00 in0.0 mm 0.00 in/hr0.0 mm/hr 0.00 in0.0 mm
03:00 AM 31.3°F-0.4°C 28.7°F-1.8°C 90% Calm Calm -- 30.19 in1022.4 mb 0.00 in0.0 mm 0.00 in/hr0.0 mm/hr 0.00 in0.0 mm
03:30 AM 31.5°F-0.3°C 28.9°F-1.7°C 90% Calm Calm -- 30.18 in1022.0 mb 0.00 in0.0 mm 0.00 in/hr0.0 mm/hr 0.00 in0.0 mm
04:00 AM 31.9°F-0.1°C 29.3°F-1.5°C 90% Calm Calm -- 30.16 in1021.3 mb 0.00 in0.0 mm 0.00 in/hr0.0 mm/hr 0.00 in0.0 mm
04:30 AM 32.4°F0.2°C 29.8°F-1.2°C 90% Calm Calm -- 30.15 in1021.0 mb 0.00 in0.0 mm 0.00 in/hr0.0 mm/hr 0.00 in0.0 mm
05:00 AM 32.7°F0.4°C 30.1°F-1.1°C 90% Calm Calm -- 30.12 in1020.0 mb 0.00 in0.0 mm 0.00 in/hr0.0 mm/hr 0.00 in0.0 mm
05:30 AM 32.8°F0.4°C 30.2°F-1.0°C 90% Calm Calm -- 30.10 in1019.3 mb 0.00 in0.0 mm 0.00 in/hr0.0 mm/hr 0.00 in0.0 mm
06:00 AM 32.9°F0.5°C 30.6°F-0.8°C 91% Calm Calm -- 30.09 in1019.0 mb 0.00 in0.0 mm 0.00 in/hr0.0 mm/hr 0.00 in0.0 mm
06:30 AM 33.5°F0.8°C 31.4°F-0.3°C 92% Calm Calm -- 30.08 in1018.6 mb 0.00 in0.0 mm 0.00 in/hr0.0 mm/hr 0.00 in0.0 mm
07:00 AM 37.0°F2.8°C 33.2°F0.7°C 86% 0.8 mph SE1.3 kmh SE 3.0 mph4.8 kmh 30.08 in1018.6 mb 0.00 in0.0 mm 0.00 in/hr0.0 mm/hr 0.00 in0.0 mm
07:30 AM 37.9°F3.3°C 32.9°F0.5°C 82% 1.0 mph SE1.6 kmh SE 4.0 mph6.4 kmh 30.07 in1018.3 mb 0.00 in0.0 mm 0.00 in/hr0.0 mm/hr 0.00 in0.0 mm
08:00 AM 38.2°F3.4°C 32.6°F0.3°C 80% Calm Calm -- 30.05 in1017.6 mb 0.00 in0.0 mm 0.00 in/hr0.0 mm/hr 0.00 in0.0 mm
08:30 AM 38.2°F3.4°C 32.6°F0.3°C 80% 1.2 mph ESE1.9 kmh ESE 2.0 mph3.2 kmh 30.02 in1016.6 mb 0.00 in0.0 mm 0.00 in/hr0.0 mm/hr 0.00 in0.0 mm
09:00 AM 38.2°F3.4°C 32.6°F0.3°C 80% 1.3 mph ESE2.1 kmh ESE 2.0 mph3.2 kmh 30.01 in1016.3 mb 0.00 in0.0 mm 0.00 in/hr0.0 mm/hr 0.00 in0.0 mm
09:30 AM 38.6°F3.7°C 33.0°F0.6°C 80% 0.6 mph ESE1.0 kmh ESE 3.0 mph4.8 kmh 30.01 in1016.3 mb 0.00 in0.0 mm 0.00 in/hr0.0 mm/hr 0.00 in0.0 mm
10:00 AM 40.5°F4.7°C 34.2°F1.2°C 78% 1.2 mph SE1.9 kmh SE 2.0 mph3.2 kmh 30.00 in1015.9 mb 0.00 in0.0 mm 0.00 in/hr0.0 mm/hr 0.00 in0.0 mm
10:30 AM 41.6°F5.3°C 35.2°F1.8°C 78% 1.5 mph ESE2.4 kmh ESE 3.0 mph4.8 kmh 29.98 in1015.2 mb 0.00 in0.0 mm 0.00 in/hr0.0 mm/hr 0.00 in0.0 mm
11:00 AM 42.3°F5.7°C 35.9°F2.2°C 78% 1.5 mph SE2.4 kmh SE 3.0 mph4.8 kmh 29.97 in1014.9 mb 0.00 in0.0 mm 0.00 in/hr0.0 mm/hr 0.00 in0.0 mm
11:30 AM 41.5°F5.3°C 37.9°F3.3°C 87% 2.7 mph E4.3 kmh E 6.0 mph9.7 kmh 29.94 in1013.9 mb 0.01 in0.3 mm 0.02 in/hr0.5 mm/hr 0.01 in0.3 mm
12:00 PM 40.5°F4.7°C 37.2°F2.9°C 88% 1.1 mph ENE1.8 kmh ENE 4.0 mph6.4 kmh 29.91 in1012.9 mb 0.00 in0.0 mm 0.00 in/hr0.0 mm/hr 0.01 in0.3 mm
12:30 PM 40.3°F4.6°C 37.6°F3.1°C 90% 2.9 mph E4.7 kmh E 5.0 mph8.0 kmh 29.85 in1010.8 mb 0.00 in0.0 mm 0.00 in/hr0.0 mm/hr 0.01 in0.3 mm
01:00 PM 40.3°F4.6°C 38.2°F3.4°C 92% 2.2 mph ESE3.5 kmh ESE 6.0 mph9.7 kmh 29.80 in1009.1 mb 0.02 in0.5 mm 0.04 in/hr1.0 mm/hr 0.03 in0.8 mm
01:30 PM 40.2°F4.6°C 38.9°F3.8°C 95% 4.4 mph ENE7.1 kmh ENE 7.0 mph11.3 kmh 29.76 in1007.8 mb 0.03 in0.8 mm 0.06 in/hr1.5 mm/hr 0.06 in1.5 mm
02:00 PM 39.9°F4.4°C 38.9°F3.8°C 96% 1.0 mph E1.6 kmh E 5.0 mph8.0 kmh 29.72 in1006.4 mb 0.04 in1.0 mm 0.08 in/hr2.0 mm/hr 0.10 in2.5 mm
02:30 PM 39.8°F4.3°C 39.0°F3.9°C 97% 1.6 mph NE2.6 kmh NE 6.0 mph9.7 kmh 29.66 in1004.4 mb 0.04 in1.0 mm 0.08 in/hr2.0 mm/hr 0.13 in3.3 mm
03:00 PM 39.9°F4.4°C 39.4°F4.1°C 98% 2.9 mph ENE4.7 kmh ENE 7.0 mph11.3 kmh 29.59 in1002.0 mb 0.03 in0.8 mm 0.06 in/hr1.5 mm/hr 0.16 in4.1 mm
03:30 PM 40.8°F4.9°C 40.3°F4.6°C 98% 2.9 mph ENE4.7 kmh ENE 3.0 mph4.8 kmh 29.54 in1000.3 mb 0.10 in2.5 mm 0.20 in/hr5.1 mm/hr 0.26 in6.6 mm
04:00 PM 42.7°F5.9°C 42.4°F5.8°C 99% 3.6 mph ESE5.8 kmh ESE 7.0 mph11.3 kmh 29.49 in998.6 mb 0.15 in3.8 mm 0.30 in/hr7.6 mm/hr 0.40 in10.2 mm
04:30 PM 47.1°F8.4°C 46.8°F8.2°C 99% 4.1 mph ESE6.6 kmh ESE 5.0 mph8.0 kmh 29.43 in996.6 mb 0.12 in3.0 mm 0.24 in/hr6.1 mm/hr 0.51 in13.0 mm
05:00 PM 50.8°F10.4°C 50.8°F10.4°C 100% 4.9 mph SE7.9 kmh SE 7.0 mph11.3 kmh 29.41 in995.9 mb 0.09 in2.3 mm 0.18 in/hr4.6 mm/hr 0.60 in15.2 mm
05:30 PM 52.8°F11.6°C 52.8°F11.6°C 100% 4.9 mph S7.9 kmh S 10.0 mph16.1 kmh 29.42 in996.3 mb 0.04 in1.0 mm 0.08 in/hr2.0 mm/hr 0.63 in16.0 mm
06:00 PM 53.8°F12.1°C 53.5°F11.9°C 99% 3.6 mph S5.8 kmh S 5.0 mph8.0 kmh 29.40 in995.6 mb 0.05 in1.3 mm 0.10 in/hr2.5 mm/hr 0.68 in17.3 mm
06:30 PM 53.2°F11.8°C 52.9°F11.6°C 99% 1.2 mph SE1.9 kmh SE 3.0 mph4.8 kmh 29.39 in995.3 mb 0.05 in1.3 mm 0.10 in/hr2.5 mm/hr 0.73 in18.5 mm
07:00 PM 52.6°F11.4°C 52.3°F11.3°C 99% 2.6 mph SSE4.2 kmh SSE 3.0 mph4.8 kmh 29.38 in994.9 mb 0.02 in0.5 mm 0.04 in/hr1.0 mm/hr 0.75 in19.1 mm
07:30 PM 51.9°F11.1°C 51.6°F10.9°C 99% 2.2 mph SW3.5 kmh SW 11.0 mph17.7 kmh 29.40 in995.6 mb 0.00 in0.0 mm 0.00 in/hr0.0 mm/hr 0.75 in19.1 mm
08:00 PM 49.7°F9.8°C 49.1°F9.5°C 98% 5.0 mph SW8.0 kmh SW 6.0 mph9.7 kmh 29.41 in995.9 mb 0.00 in0.0 mm 0.00 in/hr0.0 mm/hr 0.75 in19.1 mm
08:30 PM 48.0°F8.9°C 47.2°F8.4°C 97% 2.1 mph W3.4 kmh W 5.0 mph8.0 kmh 29.41 in995.9 mb 0.00 in0.0 mm 0.00 in/hr0.0 mm/hr 0.75 in19.1 mm
09:00 PM 46.7°F8.2°C 45.9°F7.7°C 97% 0.4 mph SW0.6 kmh SW 1.0 mph1.6 kmh 29.44 in997.0 mb 0.00 in0.0 mm 0.00 in/hr0.0 mm/hr 0.75 in19.1 mm
09:30 PM 45.4°F7.4°C 44.6°F7.0°C 97% 1.2 mph WSW1.9 kmh WSW 3.0 mph4.8 kmh 29.44 in997.0 mb 0.00 in0.0 mm 0.00 in/hr0.0 mm/hr 0.75 in19.1 mm
10:00 PM 45.1°F7.3°C 44.3°F6.8°C 97% 2.1 mph WSW3.4 kmh WSW 5.0 mph8.0 kmh 29.44 in997.0 mb 0.00 in0.0 mm 0.00 in/hr0.0 mm/hr 0.75 in19.1 mm
10:30 PM 44.6°F7.0°C 43.8°F6.6°C 97% 0.1 mph S0.2 kmh S 1.0 mph1.6 kmh 29.44 in997.0 mb 0.00 in0.0 mm 0.00 in/hr0.0 mm/hr 0.75 in19.1 mm
11:00 PM 44.3°F6.8°C 43.7°F6.5°C 98% 0.1 mph S0.2 kmh S 6.0 mph9.7 kmh 29.46 in997.6 mb 0.00 in0.0 mm 0.00 in/hr0.0 mm/hr 0.75 in19.1 mm
11:30 PM 43.8°F6.6°C 43.3°F6.3°C 98% 0.9 mph SW1.4 kmh SW 2.0 mph3.2 kmh 29.46 in997.6 mb 0.00 in0.0 mm 0.00 in/hr0.0 mm/hr 0.75 in19.1 mm